Time;durP1;ratioP1;P1;durP2;ratioP2;P2;SDS_P1;SDS_P2;PMS_P1;PMS_P2;Temp;Humidity;BMP_temperature;BMP_pressure;BME280_temperature;BME280_humidity;BME280_pressure;Samples;Min_cycle;Max_cycle;Signal;HPM_P1;HPM_P2
2023/08/28 00:01:57;;;;;;;10.98;3.63;;;12.90;99.90;;;;;;6131969;23;20517;-85
2023/08/28 00:04:24;;;;;;;9.70;4.00;;;12.90;99.90;;;;;;6156676;23;20443;-85
2023/08/28 00:06:50;;;;;;;7.75;3.92;;;12.90;99.90;;;;;;6131664;23;20013;-85
2023/08/28 00:09:16;;;;;;;8.38;4.03;;;12.90;99.90;;;;;;6132288;23;20024;-85
2023/08/28 00:11:43;;;;;;;10.32;5.43;;;12.90;99.90;;;;;;6132038;23;20013;-85
2023/08/28 00:14:08;;;;;;;10.65;4.70;;;12.90;99.90;;;;;;6157052;23;20016;-85
2023/08/28 00:16:34;;;;;;;11.05;4.47;;;13.00;99.90;;;;;;6156576;23;20009;-85
2023/08/28 00:18:59;;;;;;;8.20;3.85;;;13.00;99.90;;;;;;6157023;23;20116;-85
2023/08/28 00:21:25;;;;;;;9.95;3.60;;;13.00;99.90;;;;;;6156957;23;20047;-85
2023/08/28 00:23:50;;;;;;;8.25;3.95;;;13.00;99.90;;;;;;6156868;23;20021;-85
2023/08/28 00:26:16;;;;;;;11.30;8.98;;;13.00;99.90;;;;;;6132339;23;20039;-85
2023/08/28 00:28:42;;;;;;;9.32;4.55;;;13.00;99.90;;;;;;6132259;23;20028;-85
2023/08/28 00:31:08;;;;;;;10.63;3.78;;;13.00;99.90;;;;;;6156802;23;20013;-84
2023/08/28 00:33:33;;;;;;;10.88;8.13;;;12.90;99.90;;;;;;6156610;23;20013;-85
2023/08/28 00:35:59;;;;;;;9.35;4.35;;;13.00;99.90;;;;;;6157435;23;20009;-85
2023/08/28 00:38:24;;;;;;;8.70;4.20;;;13.00;99.90;;;;;;6157169;23;20013;-85
2023/08/28 00:40:50;;;;;;;8.68;3.60;;;12.90;99.90;;;;;;6156315;23;20016;-84
2023/08/28 00:43:15;;;;;;;11.13;4.45;;;12.90;99.90;;;;;;6156186;23;20036;-85
2023/08/28 00:45:43;;;;;;;9.57;4.60;;;12.90;99.90;;;;;;6156589;23;20013;-84
2023/08/28 00:48:15;;;;;;;11.05;4.53;;;12.90;99.90;;;;;;6157050;23;20017;-84
2023/08/28 00:50:41;;;;;;;12.48;9.13;;;12.90;99.90;;;;;;6155509;23;20064;-84
2023/08/28 00:53:08;;;;;;;11.55;8.15;;;12.90;99.90;;;;;;6155477;23;20071;-84
2023/08/28 00:55:35;;;;;;;13.35;8.63;;;13.00;99.90;;;;;;6156553;23;20522;-85
2023/08/28 00:58:04;;;;;;;11.82;4.63;;;13.00;99.90;;;;;;6156256;23;20009;-85
2023/08/28 01:00:30;;;;;;;7.85;3.92;;;13.00;99.90;;;;;;6132304;23;20016;-85
2023/08/28 01:02:55;;;;;;;7.55;3.40;;;12.90;99.90;;;;;;6131858;23;20351;-85
2023/08/28 01:05:34;;;;;;;8.38;3.42;;;12.80;99.90;;;;;;6156527;23;20485;-85
2023/08/28 01:08:17;;;;;;;7.30;2.83;;;12.80;99.90;;;;;;6156588;23;20017;-85
2023/08/28 01:10:50;;;;;;;6.97;2.95;;;12.70;99.90;;;;;;6156516;23;20076;-85
2023/08/28 01:13:31;;;;;;;10.30;6.50;;;12.60;99.90;;;;;;6155826;23;20091;-85
2023/08/28 01:15:58;;;;;;;8.57;4.35;;;12.70;99.90;;;;;;6155736;23;20072;-85
2023/08/28 01:18:26;;;;;;;11.05;8.02;;;12.70;99.90;;;;;;6131447;23;20017;-85
2023/08/28 01:20:54;;;;;;;9.25;4.45;;;12.80;99.90;;;;;;6131845;23;20045;-85
2023/08/28 01:23:44;;;;;;;9.85;3.88;;;12.80;99.90;;;;;;6156219;23;20020;-85
2023/08/28 01:26:10;;;;;;;9.00;4.07;;;12.70;99.90;;;;;;6156497;23;20015;-85
2023/08/28 01:28:35;;;;;;;8.80;4.25;;;12.70;99.90;;;;;;6132745;23;20092;-85
2023/08/28 01:31:04;;;;;;;9.23;4.28;;;12.70;99.90;;;;;;6158140;23;20017;-85
2023/08/28 01:33:31;;;;;;;10.73;4.88;;;12.70;99.90;;;;;;6158357;23;20028;-85
2023/08/28 01:36:15;;;;;;;11.18;5.00;;;12.60;99.90;;;;;;6133436;23;20041;-85
2023/08/28 01:38:47;;;;;;;11.73;4.50;;;12.60;99.90;;;;;;6133571;23;20013;-85
2023/08/28 01:41:14;;;;;;;10.45;4.78;;;12.60;99.90;;;;;;6133932;23;20013;-85
2023/08/28 01:43:45;;;;;;;14.10;11.75;;;12.60;99.90;;;;;;6158573;23;20020;-85
2023/08/28 01:46:11;;;;;;;9.30;4.60;;;12.60;99.90;;;;;;6158050;23;20021;-85
2023/08/28 01:48:44;;;;;;;10.85;4.95;;;12.60;99.90;;;;;;6133246;23;20017;-85
2023/08/28 01:51:10;;;;;;;10.27;5.38;;;12.50;99.90;;;;;;6131879;23;20731;-85
2023/08/28 01:53:36;;;;;;;9.80;5.45;;;12.50;99.90;;;;;;6157538;23;20498;-85
2023/08/28 01:56:08;;;;;;;8.57;4.70;;;12.50;99.90;;;;;;6158213;23;20020;-85
2023/08/28 01:58:40;;;;;;;11.82;5.78;;;12.50;99.90;;;;;;6158133;23;20013;-85
2023/08/28 02:01:06;;;;;;;;;;;12.50;99.90;;;;;;6134598;23;20378;-85
2023/08/28 02:03:32;;;;;;;10.95;5.70;;;12.40;99.90;;;;;;6157074;23;20012;-85
2023/08/28 02:05:57;;;;;;;11.48;6.35;;;12.40;99.90;;;;;;6133566;23;20332;-85
2023/08/28 02:08:23;;;;;;;12.13;6.22;;;12.40;99.90;;;;;;6156984;23;20452;-85
2023/08/28 02:10:48;;;;;;;15.43;5.93;;;12.40;99.90;;;;;;6158293;23;20013;-85
2023/08/28 02:13:14;;;;;;;11.63;6.30;;;12.40;99.90;;;;;;6158056;23;20036;-85
2023/08/28 02:15:40;;;;;;;12.35;6.05;;;12.40;99.90;;;;;;6157935;23;20328;-85
2023/08/28 02:18:06;;;;;;;10.80;5.18;;;12.40;99.90;;;;;;6157770;23;20135;-84
2023/08/28 02:20:32;;;;;;;18.60;16.70;;;12.40;99.90;;;;;;6158204;23;20013;-85
2023/08/28 02:22:58;;;;;;;11.60;6.10;;;12.50;99.90;;;;;;6156773;23;20017;-84
2023/08/28 02:25:24;;;;;;;18.77;16.88;;;12.50;99.90;;;;;;6132396;23;20009;-84
2023/08/28 02:27:50;;;;;;;12.98;6.18;;;12.50;99.90;;;;;;6157233;23;20459;-84
2023/08/28 02:30:19;;;;;;;12.60;6.18;;;12.40;99.90;;;;;;6157913;23;20101;-85
2023/08/28 02:32:45;;;;;;;12.63;6.32;;;12.40;99.90;;;;;;6157767;23;20067;-85
2023/08/28 02:35:13;;;;;;;12.48;6.63;;;12.30;99.90;;;;;;6132923;23;20009;-84
2023/08/28 02:37:39;;;;;;;19.35;17.45;;;12.30;99.90;;;;;;6157666;23;20009;-84
2023/08/28 02:40:06;;;;;;;10.82;6.22;;;12.30;99.90;;;;;;6158041;23;20113;-85
2023/08/28 02:42:32;;;;;;;11.65;6.55;;;12.30;99.90;;;;;;6133369;23;20060;-85
2023/08/28 02:44:57;;;;;;;13.20;6.53;;;12.20;99.90;;;;;;6157727;23;20017;-84
2023/08/28 02:47:23;;;;;;;10.98;6.10;;;12.20;99.90;;;;;;6157287;23;20055;-85
2023/08/28 02:49:49;;;;;;;11.88;6.60;;;12.20;99.90;;;;;;6133136;23;20013;-85
2023/08/28 02:52:15;;;;;;;11.88;5.88;;;12.20;99.90;;;;;;6132061;23;20066;-85
2023/08/28 02:54:40;;;;;;;12.98;6.38;;;12.10;99.90;;;;;;6156794;23;20100;-85
2023/08/28 02:57:06;;;;;;;12.50;6.70;;;12.10;99.90;;;;;;6157559;23;20017;-85
2023/08/28 02:59:32;;;;;;;15.95;6.82;;;12.10;99.90;;;;;;6133559;23;20013;-84
2023/08/28 03:01:58;;;;;;;12.80;7.35;;;12.10;99.90;;;;;;6156985;23;20020;-84
2023/08/28 03:04:23;;;;;;;11.80;6.90;;;12.10;99.90;;;;;;6133241;23;20359;-84
2023/08/28 03:06:49;;;;;;;13.93;6.28;;;12.10;99.90;;;;;;6132966;23;20012;-84
2023/08/28 03:09:15;;;;;;;11.90;6.70;;;12.10;99.90;;;;;;6157412;23;20044;-84
2023/08/28 03:11:41;;;;;;;12.20;6.68;;;12.10;99.90;;;;;;6132709;23;20467;-84
2023/08/28 03:14:07;;;;;;;13.80;7.18;;;12.10;99.90;;;;;;6132637;23;20024;-85
2023/08/28 03:16:33;;;;;;;14.48;6.60;;;12.10;99.90;;;;;;6157550;23;20013;-84
2023/08/28 03:18:58;;;;;;;13.95;6.63;;;12.00;99.90;;;;;;6157313;23;20016;-85
2023/08/28 03:21:24;;;;;;;14.98;5.88;;;12.00;99.90;;;;;;6157415;23;20582;-84
2023/08/28 03:23:50;;;;;;;19.88;17.77;;;12.00;99.90;;;;;;6133133;23;20009;-85
2023/08/28 03:26:16;;;;;;;13.38;7.43;;;12.10;99.90;;;;;;6156048;23;20095;-84
2023/08/28 03:28:41;;;;;;;19.30;17.35;;;12.20;99.90;;;;;;6132694;23;20048;-84
2023/08/28 03:31:07;;;;;;;11.52;6.43;;;12.20;99.90;;;;;;6157485;23;20017;-85
2023/08/28 03:33:35;;;;;;;10.75;5.47;;;12.20;99.90;;;;;;6157659;23;20342;-85
2023/08/28 03:36:01;;;;;;;9.80;6.03;;;12.10;99.90;;;;;;6156987;23;20012;-85
2023/08/28 03:38:27;;;;;;;11.00;5.55;;;12.00;99.90;;;;;;6156895;23;20099;-84
2023/08/28 03:40:52;;;;;;;11.52;5.32;;;12.00;99.90;;;;;;6157470;23;20036;-84
2023/08/28 03:43:18;;;;;;;12.07;6.00;;;12.00;99.90;;;;;;6132864;23;20090;-85
2023/08/28 03:45:44;;;;;;;12.00;5.57;;;12.00;99.90;;;;;;6157230;23;20017;-84
2023/08/28 03:48:10;;;;;;;11.80;5.68;;;12.00;99.90;;;;;;6132453;23;20355;-85
2023/08/28 03:50:35;;;;;;;10.50;5.90;;;11.90;99.90;;;;;;6156890;23;20024;-85
2023/08/28 03:53:01;;;;;;;12.30;6.45;;;11.90;99.90;;;;;;6156577;23;20009;-85
2023/08/28 03:55:29;;;;;;;13.55;6.22;;;11.90;99.90;;;;;;6155867;23;20017;-85
2023/08/28 03:57:55;;;;;;;12.80;6.32;;;11.90;99.90;;;;;;6156693;23;20013;-85
2023/08/28 04:00:21;;;;;;;14.25;7.38;;;11.90;99.90;;;;;;6157002;23;20013;-85
2023/08/28 04:02:48;;;;;;;14.73;7.72;;;12.00;99.90;;;;;;6156916;23;20024;-85
2023/08/28 04:05:15;;;;;;;11.35;6.32;;;12.00;99.90;;;;;;6156992;23;20087;-85
2023/08/28 04:07:42;;;;;;;13.00;7.28;;;11.90;99.90;;;;;;6131753;23;20009;-85
2023/08/28 04:10:08;;;;;;;13.55;7.15;;;11.90;99.90;;;;;;6131854;23;20044;-85
2023/08/28 04:12:33;;;;;;;11.45;6.85;;;11.90;99.90;;;;;;6156968;23;20071;-85
2023/08/28 04:14:59;;;;;;;13.13;6.45;;;11.90;99.90;;;;;;6130722;23;20661;-85
2023/08/28 04:17:25;;;;;;;16.98;15.10;;;11.90;99.90;;;;;;6157078;23;20016;-85
2023/08/28 04:19:51;;;;;;;12.10;6.55;;;12.00;99.90;;;;;;6156374;23;20013;-85
2023/08/28 04:22:20;;;;;;;13.88;6.30;;;12.00;99.90;;;;;;6157104;23;20017;-85
2023/08/28 04:24:49;;;;;;;17.55;15.75;;;12.00;99.90;;;;;;6132556;23;20151;-85
2023/08/28 04:27:15;;;;;;;11.88;6.53;;;12.10;99.90;;;;;;6157092;23;20020;-85
2023/08/28 04:29:40;;;;;;;11.63;6.65;;;12.10;99.90;;;;;;6131825;23;20013;-85
2023/08/28 04:32:06;;;;;;;17.88;15.95;;;12.10;99.90;;;;;;6156754;23;20509;-85
2023/08/28 04:34:32;;;;;;;17.17;15.38;;;12.10;99.90;;;;;;6156750;23;20530;-85
2023/08/28 04:36:58;;;;;;;11.57;6.20;;;12.20;99.90;;;;;;6157772;23;20037;-85
2023/08/28 04:39:24;;;;;;;10.85;6.00;;;12.20;99.90;;;;;;6132835;23;20005;-84
2023/08/28 04:41:52;;;;;;;10.57;5.43;;;12.10;99.90;;;;;;6133271;23;20098;-84
2023/08/28 04:44:19;;;;;;;17.45;15.73;;;12.10;99.90;;;;;;6133175;23;20013;-85
2023/08/28 04:46:47;;;;;;;14.45;6.03;;;12.20;99.90;;;;;;6156742;23;20463;-84
2023/08/28 04:49:13;;;;;;;13.65;6.30;;;12.10;99.90;;;;;;6156178;23;20051;-85
2023/08/28 04:51:38;;;;;;;11.98;6.35;;;12.10;99.90;;;;;;6130520;23;20009;-84
2023/08/28 04:54:04;;;;;;;12.27;7.20;;;12.10;99.90;;;;;;6132058;23;20060;-84
2023/08/28 04:56:30;;;;;;;18.45;16.00;;;12.10;99.90;;;;;;6131625;23;20013;-84
2023/08/28 04:58:55;;;;;;;11.57;5.80;;;12.10;99.90;;;;;;6156417;23;20016;-84
2023/08/28 05:01:21;;;;;;;10.27;5.10;;;12.10;99.90;;;;;;6157103;23;20060;-84
2023/08/28 05:03:46;;;;;;;11.40;6.15;;;12.00;99.90;;;;;;6156795;23;20028;-84
2023/08/28 05:06:12;;;;;;;13.13;6.18;;;12.00;99.90;;;;;;6131772;23;20013;-84
2023/08/28 05:08:37;;;;;;;10.13;5.43;;;11.90;99.90;;;;;;6156484;23;20454;-84
2023/08/28 05:11:04;;;;;;;10.63;4.82;;;11.90;99.90;;;;;;6131436;23;20051;-84
2023/08/28 05:13:30;;;;;;;10.93;5.47;;;11.90;99.90;;;;;;6156864;23;20059;-84
2023/08/28 05:15:56;;;;;;;10.00;5.68;;;11.80;99.90;;;;;;6131506;23;20346;-84
2023/08/28 05:18:22;;;;;;;11.93;6.35;;;11.80;99.90;;;;;;6131593;23;20075;-84
2023/08/28 05:20:48;;;;;;;12.85;5.75;;;11.80;99.90;;;;;;6132025;23;20013;-84
2023/08/28 05:23:13;;;;;;;10.93;5.18;;;11.70;99.90;;;;;;6132270;23;20060;-84
2023/08/28 05:25:39;;;;;;;11.98;6.28;;;11.70;99.90;;;;;;6155445;23;20016;-84
2023/08/28 05:28:05;;;;;;;13.07;5.78;;;11.70;99.90;;;;;;6155360;23;20013;-84
2023/08/28 05:30:30;;;;;;;14.48;6.53;;;11.80;99.90;;;;;;6131043;23;20013;-84
2023/08/28 05:32:56;;;;;;;11.70;6.53;;;11.80;99.90;;;;;;6156326;23;20016;-84
2023/08/28 05:35:22;;;;;;;19.15;17.15;;;11.80;99.90;;;;;;6156156;23;20393;-84
2023/08/28 05:37:47;;;;;;;12.55;6.40;;;11.90;99.90;;;;;;6156189;23;20406;-84
2023/08/28 05:40:15;;;;;;;11.52;5.80;;;11.90;99.90;;;;;;6156399;23;20012;-84
2023/08/28 05:42:45;;;;;;;10.75;5.60;;;11.90;99.90;;;;;;6156642;23;20021;-84
2023/08/28 05:45:10;;;;;;;10.85;5.53;;;12.00;99.90;;;;;;6156550;23;20022;-84
2023/08/28 05:47:36;;;;;;;18.42;16.48;;;12.00;99.90;;;;;;6131500;23;20012;-84
2023/08/28 05:50:03;;;;;;;13.52;7.07;;;12.10;99.90;;;;;;6155845;23;20328;-84
2023/08/28 05:52:29;;;;;;;12.55;6.85;;;12.10;99.90;;;;;;6132064;23;20055;-84
2023/08/28 05:54:54;;;;;;;20.05;18.10;;;12.10;99.90;;;;;;6131381;23;20005;-84
2023/08/28 05:57:21;;;;;;;12.93;7.28;;;12.20;99.90;;;;;;6130773;23;20015;-84
2023/08/28 05:59:46;;;;;;;14.13;6.88;;;12.30;99.90;;;;;;6154783;23;20009;-84
2023/08/28 06:02:13;;;;;;;13.77;7.50;;;12.30;99.90;;;;;;6156486;23;20346;-83
2023/08/28 06:04:38;;;;;;;13.65;6.75;;;12.30;99.90;;;;;;6156197;23;20017;-84
2023/08/28 06:07:04;;;;;;;11.88;7.50;;;12.40;99.90;;;;;;6156209;23;20016;-84
2023/08/28 06:09:31;;;;;;;11.88;5.65;;;12.40;99.90;;;;;;6131001;23;20095;-84
2023/08/28 06:11:57;;;;;;;13.55;7.00;;;12.50;99.90;;;;;;6131308;23;20109;-84
2023/08/28 06:14:22;;;;;;;12.05;6.75;;;12.60;99.90;;;;;;6155859;23;20458;-84
2023/08/28 06:16:49;;;;;;;13.50;7.00;;;12.60;99.90;;;;;;6157763;23;20013;-84
2023/08/28 06:19:15;;;;;;;11.93;6.22;;;12.70;99.90;;;;;;6133386;23;20151;-85
2023/08/28 06:21:44;;;;;;;14.02;7.25;;;12.70;99.90;;;;;;6158700;23;20430;-84
2023/08/28 06:24:11;;;;;;;12.88;5.47;;;12.80;99.90;;;;;;6158043;23;20501;-84
2023/08/28 06:26:37;;;;;;;18.77;16.73;;;12.90;99.90;;;;;;6158000;23;20013;-84
2023/08/28 06:29:03;;;;;;;12.05;7.20;;;13.00;99.90;;;;;;6157757;23;20116;-85
2023/08/28 06:31:28;;;;;;;10.57;5.10;;;13.10;99.90;;;;;;6158122;23;20017;-84
2023/08/28 06:33:54;;;;;;;10.88;5.75;;;13.10;99.90;;;;;;6134156;23;20348;-84
2023/08/28 06:36:19;;;;;;;11.18;5.97;;;13.20;99.90;;;;;;6133295;23;20005;-84
2023/08/28 06:38:46;;;;;;;17.80;15.38;;;13.20;99.90;;;;;;6157792;23;20087;-84
2023/08/28 06:41:12;;;;;;;19.88;7.47;;;13.30;99.90;;;;;;6158432;23;20521;-84
2023/08/28 06:43:37;;;;;;;12.25;6.10;;;13.40;99.90;;;;;;6133579;23;20021;-84
2023/08/28 06:46:03;;;;;;;12.18;6.07;;;13.40;99.90;;;;;;6157660;23;20021;-84
2023/08/28 06:48:28;;;;;;;10.98;6.90;;;13.50;99.90;;;;;;6132837;23;20386;-84
2023/08/28 06:50:57;;;;;;;17.25;15.02;;;13.60;99.90;;;;;;6133577;23;20043;-84
2023/08/28 06:53:22;;;;;;;18.08;16.15;;;13.70;99.90;;;;;;6133744;23;20040;-84
2023/08/28 06:55:49;;;;;;;12.88;6.70;;;13.80;99.90;;;;;;6133131;23;20005;-84
2023/08/28 06:58:14;;;;;;;11.65;5.70;;;13.90;99.90;;;;;;6132688;23;20013;-84
2023/08/28 07:00:40;;;;;;;13.27;7.10;;;13.90;99.90;;;;;;6157328;23;20013;-84
2023/08/28 07:03:06;;;;;;;15.93;14.23;;;14.00;99.90;;;;;;6158245;23;20009;-84
2023/08/28 07:05:31;;;;;;;11.93;7.45;;;14.10;99.90;;;;;;6158720;23;20516;-84
2023/08/28 07:07:57;;;;;;;16.10;14.50;;;14.20;99.90;;;;;;6133172;23;20009;-84
2023/08/28 07:10:23;;;;;;;15.43;13.82;;;14.30;99.90;;;;;;6157955;23;20624;-84
2023/08/28 07:12:49;;;;;;;15.90;14.15;;;14.40;99.90;;;;;;6133218;23;20040;-84
2023/08/28 07:15:17;;;;;;;12.25;6.65;;;14.50;99.90;;;;;;6158244;23;20517;-84
2023/08/28 07:17:43;;;;;;;12.55;6.22;;;14.60;99.90;;;;;;6157161;23;20013;-84
2023/08/28 07:20:09;;;;;;;13.25;11.52;;;14.60;99.90;;;;;;6158453;23;20016;-85
2023/08/28 07:22:35;;;;;;;16.15;7.93;;;14.70;99.90;;;;;;6158328;23;20508;-85
2023/08/28 07:25:01;;;;;;;13.43;6.75;;;14.80;99.90;;;;;;6158120;23;20096;-85
2023/08/28 07:27:27;;;;;;;15.20;13.60;;;14.80;99.90;;;;;;6157793;23;20521;-85
2023/08/28 07:29:52;;;;;;;10.38;5.70;;;15.00;99.90;;;;;;6157587;23;20477;-84
2023/08/28 07:32:18;;;;;;;10.88;5.95;;;15.10;99.90;;;;;;6132697;23;20359;-85
2023/08/28 07:34:44;;;;;;;11.13;6.25;;;15.10;99.90;;;;;;6133344;23;20009;-85
2023/08/28 07:37:09;;;;;;;11.38;6.03;;;15.20;99.90;;;;;;6157294;23;20005;-85
2023/08/28 07:39:35;;;;;;;13.70;11.30;;;15.20;99.90;;;;;;6133078;23;20009;-85
2023/08/28 07:42:00;;;;;;;12.85;10.85;;;15.30;99.90;;;;;;6157838;23;20462;-85
2023/08/28 07:44:26;;;;;;;12.85;5.82;;;15.50;99.90;;;;;;6158140;23;20017;-85
2023/08/28 07:46:52;;;;;;;12.25;10.43;;;15.60;99.90;;;;;;6133444;23;20013;-85
2023/08/28 07:49:18;;;;;;;12.40;6.55;;;15.70;99.90;;;;;;6157852;23;20020;-85
2023/08/28 07:51:44;;;;;;;12.80;10.00;;;15.80;99.90;;;;;;6158013;23;20013;-85
2023/08/28 07:54:11;;;;;;;12.93;10.05;;;15.90;99.90;;;;;;6158071;23;20723;-85
2023/08/28 07:56:36;;;;;;;14.30;10.48;;;15.90;99.90;;;;;;6156905;23;20024;-85
2023/08/28 07:59:03;;;;;;;8.88;5.72;;;16.00;99.90;;;;;;6184010;23;20009;-85
2023/08/28 08:01:29;;;;;;;10.77;8.73;;;16.10;99.90;;;;;;6133032;23;20020;-86
2023/08/28 08:03:55;;;;;;;13.02;9.32;;;16.20;99.90;;;;;;6157895;23;20320;-86
2023/08/28 08:06:21;;;;;;;9.77;4.20;;;16.30;99.90;;;;;;6157788;23;20012;-86
2023/08/28 08:08:46;;;;;;;13.27;4.97;;;16.30;99.90;;;;;;6156880;23;20540;-85
2023/08/28 08:11:12;;;;;;;9.70;4.32;;;16.30;99.90;;;;;;6157339;23;20013;-85
2023/08/28 08:13:38;;;;;;;13.05;7.40;;;16.40;99.90;;;;;;6157378;23;20059;-86
2023/08/28 08:16:06;;;;;;;10.15;6.75;;;16.50;99.90;;;;;;6132495;23;20009;-86
2023/08/28 08:18:32;;;;;;;11.57;6.95;;;16.60;99.90;;;;;;6156767;23;20006;-86
2023/08/28 08:20:58;;;;;;;8.02;3.58;;;16.70;99.90;;;;;;6157879;23;20013;-85
2023/08/28 08:23:24;;;;;;;10.50;6.55;;;16.70;99.90;;;;;;6157564;23;20481;-85
2023/08/28 08:25:52;;;;;;;8.48;4.28;;;16.80;99.90;;;;;;6131940;23;20009;-85
2023/08/28 08:28:17;;;;;;;10.95;6.43;;;16.80;99.90;;;;;;6156438;23;20040;-85
2023/08/28 08:30:43;;;;;;;7.80;3.60;;;16.90;99.90;;;;;;6157367;23;20371;-85
2023/08/28 08:33:10;;;;;;;9.20;6.03;;;17.00;99.90;;;;;;6157295;23;20079;-85
2023/08/28 08:35:36;;;;;;;9.15;5.07;;;17.00;99.90;;;;;;6133177;23;20020;-85
2023/08/28 08:38:01;;;;;;;10.25;5.20;;;17.10;99.90;;;;;;6131744;23;20009;-85
2023/08/28 08:40:27;;;;;;;9.88;5.57;;;17.10;99.90;;;;;;6132341;23;20092;-85
2023/08/28 08:42:56;;;;;;;9.68;5.13;;;17.30;99.90;;;;;;6158087;23;20387;-85
2023/08/28 08:45:31;;;;;;;10.82;5.18;;;17.40;99.90;;;;;;6133013;23;20023;-85
2023/08/28 08:48:02;;;;;;;7.13;3.33;;;17.50;99.90;;;;;;6132315;23;20008;-85
2023/08/28 08:50:28;;;;;;;7.72;4.72;;;17.50;99.90;;;;;;6157244;23;20013;-85
2023/08/28 08:53:01;;;;;;;6.35;3.20;;;17.60;99.90;;;;;;6156835;23;20013;-85
2023/08/28 08:55:42;;;;;;;8.23;3.70;;;17.70;99.90;;;;;;6157397;23;20013;-85
2023/08/28 08:58:13;;;;;;;9.23;3.05;;;17.80;99.90;;;;;;6156845;23;20020;-85
2023/08/28 09:00:43;;;;;;;6.20;2.40;;;18.00;99.90;;;;;;6132086;23;20516;-85
2023/08/28 09:03:09;;;;;;;5.63;1.92;;;18.10;99.90;;;;;;6132560;23;20378;-85
2023/08/28 09:05:36;;;;;;;6.60;1.75;;;18.10;99.90;;;;;;6157776;23;20469;-85
2023/08/28 09:08:05;;;;;;;7.72;2.70;;;18.10;99.90;;;;;;6132045;23;20048;-85
2023/08/28 09:10:31;;;;;;;8.98;1.98;;;18.20;99.90;;;;;;6156572;23;20358;-86
2023/08/28 09:12:57;;;;;;;5.97;2.20;;;18.30;99.90;;;;;;6132796;23;20013;-85
2023/08/28 09:15:24;;;;;;;5.68;2.30;;;18.30;99.90;;;;;;6157388;23;20009;-86
2023/08/28 09:17:50;;;;;;;6.53;1.88;;;18.30;99.90;;;;;;6131685;23;20478;-85
2023/08/28 09:20:17;;;;;;;4.18;1.23;;;18.40;99.90;;;;;;6132625;23;20009;-85
2023/08/28 09:22:51;;;;;;;5.63;1.25;;;18.40;99.90;;;;;;6132649;23;20019;-86
2023/08/28 09:25:18;;;;;;;4.80;1.30;;;18.40;99.90;;;;;;6156848;23;20024;-86
2023/08/28 09:27:45;;;;;;;3.55;1.10;;;18.40;99.90;;;;;;6155643;23;20064;-85
2023/08/28 09:30:38;;;;;;;5.03;1.33;;;18.50;99.90;;;;;;6155321;23;20186;-85
2023/08/28 09:33:06;;;;;;;6.18;1.42;;;18.60;99.90;;;;;;6144869;23;20509;-85
2023/08/28 09:35:43;;;;;;;4.43;1.20;;;18.70;99.90;;;;;;6156016;23;20024;-85
2023/08/28 09:38:09;;;;;;;5.78;1.95;;;18.80;99.90;;;;;;6130342;23;20614;-86
2023/08/28 09:40:39;;;;;;;4.72;1.80;;;18.90;99.90;;;;;;6155434;23;20045;-85
2023/08/28 09:43:13;;;;;;;6.80;1.70;;;18.90;99.90;;;;;;6130686;23;20005;-86
2023/08/28 09:45:40;;;;;;;5.63;1.40;;;19.00;99.90;;;;;;6156230;23;20446;-85
2023/08/28 09:48:07;;;;;;;3.67;1.27;;;19.10;99.90;;;;;;6156965;23;20013;-86
2023/08/28 09:50:34;;;;;;;4.13;1.15;;;19.10;99.90;;;;;;6134034;23;20013;-86
2023/08/28 09:53:08;;;;;;;4.72;1.20;;;19.20;99.90;;;;;;6158835;23;20024;-85
2023/08/28 09:55:47;;;;;;;4.25;1.13;;;19.30;99.90;;;;;;6159129;23;20016;-86
2023/08/28 09:58:12;;;;;;;4.50;1.30;;;19.40;99.90;;;;;;6158530;23;20126;-86
2023/08/28 10:00:39;;;;;;;7.15;1.48;;;19.50;99.90;;;;;;6158862;23;20447;-86
2023/08/28 10:03:13;;;;;;;5.50;1.40;;;19.50;99.90;;;;;;6158442;23;20012;-86
2023/08/28 10:05:44;;;;;;;5.53;1.60;;;19.50;99.90;;;;;;6134379;23;20024;-86
2023/08/28 10:08:14;;;;;;;6.55;1.45;;;19.60;99.90;;;;;;6158327;23;20101;-86
2023/08/28 10:10:47;;;;;;;3.85;1.30;;;19.70;99.90;;;;;;6133913;23;20048;-86
2023/08/28 10:13:20;;;;;;;4.10;1.50;;;19.70;99.90;;;;;;6158655;23;20056;-86
2023/08/28 10:16:00;;;;;;;3.60;1.20;;;19.80;99.90;;;;;;6158770;23;20013;-86
2023/08/28 10:18:35;;;;;;;4.38;1.35;;;20.00;99.90;;;;;;6157463;23;20020;-86
2023/08/28 10:21:01;;;;;;;3.08;1.20;;;20.10;99.90;;;;;;6158214;23;20005;-86
2023/08/28 10:23:28;;;;;;;3.33;1.00;;;20.10;99.90;;;;;;6184561;23;20347;-86
2023/08/28 10:25:55;;;;;;;4.68;1.35;;;20.30;99.90;;;;;;6158699;23;20020;-86
2023/08/28 10:28:22;;;;;;;4.72;1.27;;;20.30;99.90;;;;;;6157637;23;20015;-86
2023/08/28 10:30:51;;;;;;;5.32;1.08;;;20.30;99.90;;;;;;6158611;23;20079;-86
2023/08/28 10:33:22;;;;;;;4.68;1.30;;;20.30;99.90;;;;;;6132036;23;20063;-86
2023/08/28 10:35:51;;;;;;;3.85;1.10;;;20.30;99.90;;;;;;6131280;23;20028;-86
2023/08/28 10:38:21;;;;;;;3.20;1.00;;;20.20;99.90;;;;;;6155471;23;20093;-86
2023/08/28 10:40:49;;;;;;;4.75;1.20;;;20.20;99.90;;;;;;6131807;23;20013;-86
2023/08/28 10:43:19;;;;;;;4.30;1.40;;;20.10;99.90;;;;;;6131329;23;20438;-86
2023/08/28 10:45:45;;;;;;;6.57;1.58;;;20.00;99.90;;;;;;6131407;23;20013;-87
2023/08/28 10:48:11;;;;;;;4.07;1.30;;;19.90;99.90;;;;;;6154672;23;20024;-86
2023/08/28 10:50:38;;;;;;;6.97;1.67;;;19.90;99.90;;;;;;6157175;23;20016;-86
2023/08/28 10:53:04;;;;;;;5.18;1.50;;;19.90;99.90;;;;;;6132691;23;20489;-86
2023/08/28 10:55:31;;;;;;;6.13;1.70;;;19.80;99.90;;;;;;6157986;23;20013;-86
2023/08/28 10:58:02;;;;;;;5.68;1.45;;;19.80;99.90;;;;;;6157446;23;20055;-86
2023/08/28 11:00:28;;;;;;;4.22;1.02;;;19.80;99.90;;;;;;6132974;23;20040;-86
2023/08/28 11:03:14;;;;;;;4.40;1.15;;;19.90;99.90;;;;;;6157701;23;20013;-86
2023/08/28 11:05:40;;;;;;;5.15;1.30;;;20.00;99.90;;;;;;6158158;23;20021;-86
2023/08/28 11:08:11;;;;;;;3.10;1.10;;;20.10;99.90;;;;;;6133488;23;20024;-86
2023/08/28 11:10:38;;;;;;;5.03;0.90;;;20.20;99.90;;;;;;6157686;23;20476;-86
2023/08/28 11:13:11;;;;;;;5.43;1.15;;;20.20;99.90;;;;;;6157818;23;20063;-86
2023/08/28 11:15:41;;;;;;;4.45;1.30;;;20.30;99.90;;;;;;6134222;23;20032;-86
2023/08/28 11:18:28;;;;;;;2.28;1.05;;;20.20;99.90;;;;;;6134690;23;20394;-86
2023/08/28 11:20:55;;;;;;;9.13;1.45;;;20.20;99.90;;;;;;6134733;23;20343;-86
2023/08/28 11:23:23;;;;;;;4.43;1.30;;;20.10;99.90;;;;;;6134703;23;20010;-86
2023/08/28 11:25:50;;;;;;;4.35;1.20;;;20.20;99.90;;;;;;6134969;23;20324;-86
2023/08/28 11:28:30;;;;;;;4.72;1.10;;;20.30;99.90;;;;;;6133772;23;20131;-86
2023/08/28 11:31:05;;;;;;;2.55;1.10;;;20.50;99.90;;;;;;6133035;23;20083;-86
2023/08/28 11:33:40;;;;;;;5.00;1.40;;;20.70;99.90;;;;;;6157752;23;20071;-86
2023/08/28 11:36:10;;;;;;;4.97;1.17;;;21.00;99.90;;;;;;6133093;23;20060;-86
2023/08/28 11:38:38;;;;;;;5.70;1.33;;;21.00;99.90;;;;;;6157111;23;20009;-86
2023/08/28 11:41:05;;;;;;;4.35;1.10;;;21.00;99.20;;;;;;6133247;23;20013;-86
2023/08/28 11:43:35;;;;;;;3.05;1.00;;;21.10;99.90;;;;;;6133278;23;20048;-86
2023/08/28 11:46:03;;;;;;;3.40;1.13;;;21.30;96.60;;;;;;6133301;23;20051;-86
2023/08/28 11:48:38;;;;;;;4.85;1.40;;;21.30;94.70;;;;;;6132800;23;20093;-87
2023/08/28 11:51:11;;;;;;;4.60;1.30;;;21.30;93.80;;;;;;6156298;23;20013;-86
2023/08/28 11:53:42;;;;;;;3.50;1.13;;;21.30;99.10;;;;;;6132301;23;20024;-86
2023/08/28 11:56:10;;;;;;;3.50;1.30;;;21.40;99.90;;;;;;6133295;23;20013;-87
2023/08/28 11:58:39;;;;;;;5.45;1.75;;;21.40;99.90;;;;;;6157102;23;20013;-87
2023/08/28 12:01:07;;;;;;;4.47;1.30;;;21.50;99.90;;;;;;6157277;23;20049;-87
2023/08/28 12:03:36;;;;;;;3.05;1.10;;;21.60;99.90;;;;;;6133722;23;20016;-86
2023/08/28 12:06:09;;;;;;;4.93;1.08;;;21.60;99.90;;;;;;6158067;23;20528;-87
2023/08/28 12:08:40;;;;;;;4.40;1.20;;;21.70;99.90;;;;;;6157934;23;20096;-87
2023/08/28 12:11:07;;;;;;;4.03;1.08;;;21.70;99.90;;;;;;6132748;23;20020;-87
2023/08/28 12:13:34;;;;;;;3.35;1.10;;;21.70;99.90;;;;;;6157088;23;20013;-87
2023/08/28 12:16:17;;;;;;;5.55;1.30;;;21.80;99.90;;;;;;6158121;23;20486;-86
2023/08/28 12:18:45;;;;;;;3.63;1.10;;;21.80;99.90;;;;;;6157487;23;20056;-86
2023/08/28 12:21:11;;;;;;;5.50;1.20;;;21.90;99.90;;;;;;6127946;23;20455;-83
2023/08/28 12:23:51;;;;;;;3.40;1.00;;;22.00;99.90;;;;;;6133302;23;20092;-86
2023/08/28 12:26:18;;;;;;;5.03;1.00;;;22.20;99.90;;;;;;6157475;23;20056;-86
2023/08/28 12:28:45;;;;;;;6.13;1.42;;;22.30;99.90;;;;;;6158003;23;20016;-86
2023/08/28 12:31:10;;;;;;;3.25;0.90;;;22.40;99.90;;;;;;6132849;23;20017;-85
2023/08/28 12:33:44;;;;;;;5.57;1.27;;;22.40;99.90;;;;;;6157794;23;20378;-85
2023/08/28 12:36:10;;;;;;;2.85;1.05;;;22.30;99.90;;;;;;6133968;23;20041;-87
2023/08/28 12:38:50;;;;;;;4.90;1.05;;;22.30;99.90;;;;;;6157242;23;20013;-86
2023/08/28 12:41:16;;;;;;;3.40;1.13;;;22.20;99.50;;;;;;6157706;23;20620;-87
2023/08/28 12:43:43;;;;;;;2.40;1.10;;;22.20;99.90;;;;;;6133341;23;20017;-86